createdAt,value
2022-08-10T00:00:58.683Z,5.33
2022-08-10T00:03:26.588Z,5.30
2022-08-10T00:05:56.355Z,5.73
2022-08-10T00:08:26.013Z,5.43
2022-08-10T00:10:54.417Z,6.63
2022-08-10T00:13:22.652Z,6.10
2022-08-10T00:15:53.512Z,6.17
2022-08-10T00:18:34.796Z,7.50
2022-08-10T00:21:03.100Z,6.17
2022-08-10T00:23:30.766Z,7.30
2022-08-10T00:25:58.357Z,6.33
2022-08-10T00:28:26.276Z,6.30
2022-08-10T00:30:53.873Z,6.80
2022-08-10T00:33:22.960Z,6.73
2022-08-10T00:35:51.158Z,5.80
2022-08-10T00:38:19.103Z,5.30
2022-08-10T00:40:47.089Z,5.70
2022-08-10T00:43:14.700Z,6.47
2022-08-10T00:45:42.310Z,5.70
2022-08-10T00:48:10.804Z,7.17
2022-08-10T00:50:39.837Z,6.67
2022-08-10T00:53:08.047Z,6.00
2022-08-10T00:56:35.140Z,6.23
2022-08-10T00:58:25.004Z,5.70
2022-08-10T01:00:53.800Z,5.27
2022-08-10T01:04:58.949Z,5.27
2022-08-10T01:06:16.757Z,6.30
2022-08-10T01:08:52.441Z,6.40
2022-08-10T01:12:47.340Z,6.77
2022-08-10T01:14:27.396Z,6.13
2022-08-10T01:17:01.283Z,6.80
2022-08-10T01:19:46.881Z,5.93
2022-08-10T01:22:33.115Z,7.17
2022-08-10T01:25:20.098Z,7.00
2022-08-10T01:27:55.242Z,6.00
2022-08-10T01:30:25.301Z,6.00
2022-08-10T01:32:58.589Z,5.90
2022-08-10T01:35:34.028Z,7.07
2022-08-10T01:38:06.665Z,5.80
2022-08-10T01:40:39.633Z,6.50
2022-08-10T01:43:10.966Z,6.37
2022-08-10T01:45:45.727Z,6.50
2022-08-10T01:48:32.226Z,6.50
2022-08-10T01:51:09.011Z,6.00
2022-08-10T01:53:41.836Z,6.63
2022-08-10T01:56:11.908Z,6.77
2022-08-10T01:58:40.521Z,6.03
2022-08-10T02:01:16.956Z,5.90
2022-08-10T02:04:03.764Z,7.57
2022-08-10T02:06:36.662Z,6.27
2022-08-10T02:09:07.538Z,7.37
2022-08-10T02:12:05.501Z,6.90
2022-08-10T02:14:25.813Z,6.67
2022-08-10T02:17:03.607Z,6.90
2022-08-10T02:19:33.677Z,6.63
2022-08-10T02:22:36.859Z,5.83
2022-08-10T02:24:53.351Z,7.50
2022-08-10T02:27:24.753Z,7.97
2022-08-10T02:29:54.866Z,7.53
2022-08-10T02:32:37.783Z,8.30
2022-08-10T02:35:15.559Z,8.17
2022-08-10T02:37:52.591Z,8.53
2022-08-10T02:45:01.822Z,9.73
2022-08-10T02:45:26.073Z,9.90
2022-08-10T02:46:18.241Z,9.23
2022-08-10T02:48:55.191Z,9.10
2022-08-10T02:52:06.523Z,10.47
2022-08-10T02:54:22.885Z,9.20
2022-08-10T02:56:56.391Z,8.33
2022-08-10T02:59:28.962Z,8.67
2022-08-10T03:02:11.486Z,9.27
2022-08-10T03:04:55.345Z,9.50
2022-08-10T03:07:44.732Z,9.93
2022-08-10T03:10:16.123Z,9.23
2022-08-10T03:12:46.109Z,9.03
2022-08-10T03:15:15.828Z,8.97
2022-08-10T03:17:57.637Z,8.00
2022-08-10T03:20:37.830Z,7.30
2022-08-10T03:23:10.846Z,7.23
2022-08-10T03:25:39.030Z,6.70
2022-08-10T03:28:07.531Z,7.80
2022-08-10T03:30:36.071Z,8.00
2022-08-10T03:33:05.813Z,8.50
2022-08-10T03:35:35.487Z,8.63
2022-08-10T03:38:04.065Z,8.03
2022-08-10T03:40:45.296Z,8.70
2022-08-10T03:43:17.012Z,7.57
2022-08-10T03:45:55.345Z,10.23
2022-08-10T03:48:32.051Z,8.47
2022-08-10T03:51:15.712Z,8.57
2022-08-10T03:54:06.043Z,9.23
2022-08-10T03:56:33.021Z,9.17
2022-08-10T03:59:01.587Z,9.23
2022-08-10T04:02:46.058Z,10.23
2022-08-10T04:04:23.695Z,10.10
2022-08-10T04:06:55.810Z,8.47
2022-08-10T04:09:24.568Z,9.60
2022-08-10T04:11:57.700Z,9.83
2022-08-10T04:14:38.597Z,9.47
2022-08-10T04:17:14.156Z,9.73
2022-08-10T04:19:45.832Z,10.70
2022-08-10T04:22:18.720Z,10.30
2022-08-10T04:24:49.890Z,9.30
2022-08-10T04:27:17.894Z,8.40
2022-08-10T04:29:45.982Z,8.27
2022-08-10T04:32:16.368Z,9.87
2022-08-10T04:34:46.365Z,9.50
2022-08-10T04:37:18.981Z,10.37
2022-08-10T04:39:46.938Z,8.70
2022-08-10T04:42:14.865Z,8.60
2022-08-10T04:44:43.013Z,8.73
2022-08-10T04:47:10.577Z,7.90
2022-08-10T04:49:56.080Z,8.00
2022-08-10T04:52:25.718Z,8.20
2022-08-10T04:54:53.293Z,8.53
2022-08-10T04:57:20.870Z,9.30
2022-08-10T04:59:48.430Z,8.60
2022-08-10T05:02:31.316Z,10.67
2022-08-10T05:05:00.128Z,9.93
2022-08-10T05:07:29.103Z,10.27
2022-08-10T05:10:02.555Z,8.83
2022-08-10T05:12:35.975Z,8.40
2022-08-10T05:15:06.918Z,8.93
2022-08-10T05:17:34.791Z,8.07
2022-08-10T05:20:06.428Z,7.77
2022-08-10T05:22:41.640Z,8.83
2022-08-10T05:25:11.248Z,6.83
2022-08-10T05:27:39.296Z,7.60
2022-08-10T05:30:08.493Z,7.50
2022-08-10T05:32:59.008Z,6.73
2022-08-10T05:35:24.453Z,7.47
2022-08-10T05:38:12.664Z,7.53
2022-08-10T05:40:47.543Z,7.90
2022-08-10T05:43:19.016Z,7.57
2022-08-10T05:46:18.594Z,6.00
2022-08-10T05:48:55.067Z,8.53
2022-08-10T05:51:24.068Z,6.70
2022-08-10T05:54:01.940Z,7.50
2022-08-10T05:56:55.326Z,8.37
2022-08-10T06:00:11.146Z,6.53
2022-08-10T06:02:33.317Z,6.70
2022-08-10T06:05:06.941Z,7.33
2022-08-10T06:07:38.355Z,7.63
2022-08-10T06:10:10.404Z,7.13
2022-08-10T06:12:55.446Z,6.37
2022-08-10T06:15:52.182Z,6.00
2022-08-10T06:18:15.381Z,5.87
2022-08-10T06:20:43.493Z,6.07
2022-08-10T06:23:13.362Z,6.60
2022-08-10T06:26:09.815Z,6.90
2022-08-10T06:28:33.493Z,6.40
2022-08-10T06:31:02.569Z,7.30
2022-08-10T06:33:32.847Z,7.07
2022-08-10T06:36:02.525Z,7.30
2022-08-10T06:38:33.688Z,7.07
2022-08-10T06:41:05.926Z,7.27
2022-08-10T06:43:36.253Z,7.37
2022-08-10T06:46:09.706Z,7.70
2022-08-10T06:48:47.342Z,6.47
2022-08-10T06:51:18.638Z,8.30
2022-08-10T06:53:53.626Z,7.47
2022-08-10T06:56:37.514Z,6.47
2022-08-10T06:59:21.342Z,7.10
2022-08-10T07:01:52.990Z,6.27
2022-08-10T07:04:33.362Z,7.87
2022-08-10T07:07:04.476Z,7.17
2022-08-10T07:09:34.019Z,7.10
2022-08-10T07:12:08.038Z,7.57
2022-08-10T07:14:39.559Z,7.77
2022-08-10T07:17:09.006Z,7.50
2022-08-10T07:19:50.229Z,7.47
2022-08-10T07:23:08.276Z,6.70
2022-08-10T07:25:12.736Z,7.07
2022-08-10T07:28:00.391Z,7.10
2022-08-10T07:30:31.562Z,6.50
2022-08-10T07:33:01.307Z,6.10
2022-08-10T07:35:36.805Z,6.23
2022-08-10T07:38:13.898Z,6.10
2022-08-10T07:40:42.691Z,6.50
2022-08-10T07:43:13.531Z,4.37
2022-08-10T07:45:41.490Z,3.40
2022-08-10T07:48:14.680Z,3.40
2022-08-10T07:50:42.465Z,3.93
2022-08-10T07:53:13.976Z,3.57
2022-08-10T07:56:07.389Z,4.40
2022-08-10T07:58:36.880Z,3.80
2022-08-10T08:01:04.707Z,3.60
2022-08-10T08:03:33.841Z,3.77
2022-08-10T08:06:05.534Z,3.37
2022-08-10T08:08:41.438Z,3.27
2022-08-10T08:11:10.296Z,2.60
2022-08-10T08:13:56.428Z,2.40
2022-08-10T08:16:25.654Z,2.43
2022-08-10T08:24:09.713Z,2.40
2022-08-10T08:24:36.477Z,2.20
2022-08-10T08:27:07.573Z,2.40
2022-08-10T08:29:40.088Z,3.20
2022-08-10T08:32:08.457Z,2.73
2022-08-10T08:34:39.608Z,2.87
2022-08-10T08:37:10.094Z,2.57
2022-08-10T08:39:37.899Z,2.50
2022-08-10T08:42:17.470Z,2.67
2022-08-10T08:45:01.902Z,2.70
2022-08-10T08:48:04.829Z,2.40
2022-08-10T08:50:46.369Z,2.40
2022-08-10T08:54:01.165Z,2.53
2022-08-10T08:56:24.800Z,2.37
2022-08-10T08:59:06.900Z,2.90
2022-08-10T09:01:49.948Z,3.07
2022-08-10T09:04:31.437Z,1.97
2022-08-10T09:07:56.264Z,2.40
2022-08-10T09:10:13.340Z,2.67
2022-08-10T09:12:52.553Z,2.30
2022-08-10T09:15:40.702Z,2.53
2022-08-10T09:18:17.188Z,2.70
2022-08-10T09:20:50.770Z,2.23
2022-08-10T09:24:04.285Z,2.50
2022-08-10T09:26:20.122Z,2.13
2022-08-10T09:29:11.651Z,2.57
2022-08-10T09:32:54.336Z,2.20
2022-08-10T09:36:23.692Z,2.47
2022-08-10T09:38:02.271Z,2.37
2022-08-10T09:41:01.302Z,2.90
2022-08-10T09:43:37.171Z,2.20
2022-08-10T09:46:15.086Z,2.20
2022-08-10T09:48:55.464Z,2.53
2022-08-10T09:51:45.280Z,2.30
2022-08-10T09:54:27.925Z,2.40
2022-08-10T09:57:44.121Z,2.03
2022-08-10T10:00:03.034Z,2.30
2022-08-10T10:02:39.121Z,2.20
2022-08-10T10:05:17.629Z,3.53
2022-08-10T10:08:01.673Z,2.50
2022-08-10T10:10:36.972Z,2.83
2022-08-10T10:13:58.317Z,2.97
2022-08-10T10:16:24.597Z,2.30
2022-08-10T10:19:08.705Z,2.83
2022-08-10T10:21:55.087Z,2.50
2022-08-10T10:24:36.906Z,2.10
2022-08-10T10:27:16.230Z,2.60
2022-08-10T10:29:58.543Z,2.50
2022-08-10T10:32:37.688Z,2.37
2022-08-10T10:35:16.261Z,2.70
2022-08-10T10:38:01.952Z,2.50
2022-08-10T10:40:38.559Z,2.47
2022-08-10T10:43:12.085Z,2.67
2022-08-10T10:45:57.364Z,2.70
2022-08-10T10:48:33.823Z,3.17
2022-08-10T10:51:10.976Z,2.50
2022-08-10T10:53:47.133Z,2.50
2022-08-10T10:56:21.380Z,2.50
2022-08-10T10:58:59.749Z,2.60
2022-08-10T11:01:38.799Z,2.40
2022-08-10T11:04:24.092Z,3.00
2022-08-10T11:07:02.966Z,2.67
2022-08-10T11:10:04.863Z,2.87
2022-08-10T11:12:47.748Z,3.13
2022-08-10T11:15:25.102Z,2.50
2022-08-10T11:17:58.850Z,2.80
2022-08-10T11:20:37.308Z,2.60
2022-08-10T11:23:18.503Z,2.70
2022-08-10T11:25:52.754Z,2.70
2022-08-10T11:28:34.038Z,2.27
2022-08-10T11:31:12.009Z,3.03
2022-08-10T11:34:11.735Z,2.40
2022-08-10T11:36:41.735Z,2.53
2022-08-10T11:39:15.886Z,2.80
2022-08-10T11:42:12.276Z,2.33
2022-08-10T11:44:51.965Z,3.00
2022-08-10T11:47:23.492Z,2.43
2022-08-10T11:49:55.737Z,2.77
2022-08-10T11:52:35.364Z,2.47
2022-08-10T11:55:12.773Z,2.40
2022-08-10T11:57:54.794Z,2.57
2022-08-10T12:00:25.223Z,2.73
2022-08-10T12:03:04.692Z,2.50
2022-08-10T12:05:52.003Z,2.70
2022-08-10T12:10:03.451Z,2.50
2022-08-10T12:11:23.852Z,2.30
2022-08-10T12:14:19.611Z,2.60
2022-08-10T12:16:52.196Z,2.30
2022-08-10T12:19:25.012Z,2.53
2022-08-10T12:22:02.216Z,2.80
2022-08-10T12:24:39.099Z,2.10
2022-08-10T12:27:13.262Z,2.17
2022-08-10T12:29:47.197Z,2.50
2022-08-10T12:32:25.853Z,2.20
2022-08-10T12:35:01.358Z,2.87
2022-08-10T12:37:34.772Z,2.60
2022-08-10T12:40:33.792Z,2.27
2022-08-10T12:44:04.264Z,2.50
2022-08-10T12:46:08.186Z,2.50
2022-08-10T12:48:45.010Z,2.60
2022-08-10T12:51:19.466Z,2.30
2022-08-10T12:53:53.997Z,2.77
2022-08-10T12:56:27.321Z,2.60
2022-08-10T12:59:00.664Z,2.20
2022-08-10T13:02:07.407Z,2.73
2022-08-10T13:04:29.285Z,2.83
2022-08-10T13:06:59.931Z,2.83
2022-08-10T13:09:28.685Z,2.43
2022-08-10T13:12:35.399Z,2.40
2022-08-10T13:14:50.783Z,2.50
2022-08-10T13:17:24.629Z,2.17
2022-08-10T13:20:16.248Z,2.30
2022-08-10T13:22:47.665Z,2.40
2022-08-10T13:25:21.552Z,2.50
2022-08-10T13:27:59.652Z,2.50
2022-08-10T13:30:33.422Z,2.47
2022-08-10T13:33:06.847Z,2.57
2022-08-10T13:35:37.673Z,2.03
2022-08-10T13:38:07.195Z,2.57
2022-08-10T13:40:36.909Z,2.50
2022-08-10T13:43:08.122Z,2.43
2022-08-10T13:45:45.092Z,2.23
2022-08-10T13:48:19.738Z,2.27
2022-08-10T13:50:51.720Z,2.47
2022-08-10T13:53:21.719Z,2.50
2022-08-10T13:55:55.148Z,2.43
2022-08-10T13:58:30.435Z,2.70
2022-08-10T14:00:59.948Z,2.40
2022-08-10T14:03:28.994Z,2.70
2022-08-10T14:05:59.535Z,2.80
2022-08-10T14:08:30.161Z,2.90
2022-08-10T14:11:10.851Z,2.83
2022-08-10T14:13:43.461Z,2.53
2022-08-10T14:16:12.225Z,2.53
2022-08-10T14:18:42.196Z,2.53
2022-08-10T14:21:11.941Z,2.70
2022-08-10T14:23:51.995Z,2.67
2022-08-10T14:26:24.279Z,2.60
2022-08-10T14:28:55.430Z,2.80
2022-08-10T14:31:26.884Z,2.97
2022-08-10T14:33:58.143Z,3.10
2022-08-10T14:36:33.168Z,2.83
2022-08-10T14:39:03.450Z,2.83
2022-08-10T14:42:03.192Z,2.57
2022-08-10T14:44:25.785Z,2.60
2022-08-10T14:46:58.534Z,2.73
2022-08-10T14:49:29.421Z,3.03
2022-08-10T14:52:19.389Z,2.60
2022-08-10T14:54:56.488Z,2.30
2022-08-10T14:58:17.021Z,2.83
2022-08-10T15:00:31.519Z,2.60
2022-08-10T15:03:10.965Z,2.80
2022-08-10T15:05:54.170Z,3.00
2022-08-10T15:08:36.676Z,2.90
2022-08-10T15:11:05.920Z,3.23
2022-08-10T15:13:35.465Z,2.90
2022-08-10T15:16:13.831Z,2.60
2022-08-10T15:18:58.207Z,3.00
2022-08-10T15:21:35.223Z,2.27
2022-08-10T15:24:16.149Z,2.50
2022-08-10T15:26:57.478Z,2.73
2022-08-10T15:29:28.017Z,2.90
2022-08-10T15:32:13.293Z,2.50
2022-08-10T15:35:01.683Z,2.80
2022-08-10T15:37:39.835Z,2.80
2022-08-10T15:40:24.889Z,2.60
2022-08-10T15:43:00.984Z,2.37
2022-08-10T15:45:29.270Z,2.40
2022-08-10T15:48:03.448Z,2.33
2022-08-10T15:50:35.499Z,2.50
2022-08-10T15:53:15.947Z,2.30
2022-08-10T15:55:51.377Z,2.40
2022-08-10T15:58:39.669Z,2.70
2022-08-10T16:02:14.097Z,2.57
2022-08-10T16:04:08.597Z,3.03
2022-08-10T16:06:42.646Z,2.50
2022-08-10T16:10:24.578Z,2.10
2022-08-10T16:12:09.283Z,2.40
2022-08-10T16:14:38.546Z,2.60
2022-08-10T16:17:10.590Z,2.10
2022-08-10T16:19:46.338Z,2.40
2022-08-10T16:22:35.619Z,2.37
2022-08-10T16:25:12.360Z,2.20
2022-08-10T16:27:43.956Z,2.30
2022-08-10T16:30:12.806Z,2.07
2022-08-10T16:32:41.628Z,2.20
2022-08-10T16:35:16.429Z,2.53
2022-08-10T16:37:57.825Z,1.90
2022-08-10T16:40:27.857Z,2.70
2022-08-10T16:42:58.420Z,2.50
2022-08-10T16:45:32.441Z,2.50
2022-08-10T16:48:01.761Z,2.13
2022-08-10T16:50:33.641Z,2.20
2022-08-10T16:53:03.162Z,2.17
2022-08-10T16:55:49.533Z,2.50
2022-08-10T16:58:25.557Z,2.10
2022-08-10T17:00:54.268Z,2.20
2022-08-10T17:04:06.943Z,2.00
2022-08-10T17:06:21.828Z,2.00
2022-08-10T17:08:53.524Z,2.10
2022-08-10T17:11:24.026Z,2.20
2022-08-10T17:13:56.321Z,2.10
2022-08-10T17:16:25.412Z,2.30
2022-08-10T17:18:55.649Z,2.67
2022-08-10T17:21:26.741Z,2.23
2022-08-10T17:23:57.131Z,2.57
2022-08-10T17:26:35.757Z,2.50
2022-08-10T17:29:53.247Z,2.50
2022-08-10T17:32:06.862Z,2.37
2022-08-10T17:34:37.754Z,2.30
2022-08-10T17:37:11.886Z,2.53
2022-08-10T17:39:55.579Z,2.37
2022-08-10T17:42:26.149Z,2.60
2022-08-10T17:44:56.527Z,2.33
2022-08-10T17:47:27.470Z,2.20
2022-08-10T17:49:56.572Z,2.23
2022-08-10T17:52:27.020Z,2.17
2022-08-10T17:54:57.280Z,2.20
2022-08-10T17:57:26.301Z,2.63
2022-08-10T17:59:57.030Z,2.23
2022-08-10T18:02:28.219Z,2.17
2022-08-10T18:04:58.340Z,2.27
2022-08-10T18:07:32.653Z,2.20
2022-08-10T18:10:02.608Z,2.03
2022-08-10T18:12:38.673Z,2.10
2022-08-10T18:15:12.171Z,2.00
2022-08-10T18:17:45.857Z,2.30
2022-08-10T18:20:14.855Z,1.90
2022-08-10T18:22:47.420Z,2.03
2022-08-10T18:25:19.904Z,2.30
2022-08-10T18:28:03.926Z,1.87
2022-08-10T18:30:45.424Z,2.50
2022-08-10T18:33:15.121Z,2.23
2022-08-10T18:35:45.772Z,2.30
2022-08-10T18:38:15.449Z,2.00
2022-08-10T18:40:53.324Z,2.30
2022-08-10T18:44:07.322Z,2.30
2022-08-10T18:46:17.855Z,2.10
2022-08-10T18:48:49.633Z,2.27
2022-08-10T18:51:24.472Z,2.40
2022-08-10T18:53:56.325Z,1.80
2022-08-10T18:56:39.258Z,1.83
2022-08-10T18:59:29.231Z,2.10
2022-08-10T19:02:14.649Z,2.23
2022-08-10T19:05:00.046Z,2.20
2022-08-10T19:07:49.960Z,2.57
2022-08-10T19:10:35.194Z,1.97
2022-08-10T19:13:11.620Z,2.20
2022-08-10T19:15:45.237Z,2.00
2022-08-10T19:18:26.882Z,3.17
2022-08-10T19:20:59.649Z,2.30
2022-08-10T19:23:52.322Z,2.60
2022-08-10T19:26:43.804Z,2.43
2022-08-10T19:30:09.786Z,2.50
2022-08-10T19:32:28.269Z,2.30
2022-08-10T19:35:05.092Z,2.60
2022-08-10T19:37:42.051Z,2.33
2022-08-10T19:40:21.659Z,2.83
2022-08-10T19:43:30.668Z,2.77
2022-08-10T19:46:12.197Z,2.73
2022-08-10T19:48:47.358Z,2.93
2022-08-10T19:51:23.794Z,3.10
2022-08-10T19:54:05.919Z,3.00
2022-08-10T19:56:46.820Z,3.10
2022-08-10T20:00:16.478Z,3.33
2022-08-10T20:02:20.770Z,4.20
2022-08-10T20:05:06.898Z,4.47
2022-08-10T20:07:43.612Z,4.17
2022-08-10T20:10:17.478Z,4.77
2022-08-10T20:12:52.717Z,4.10
2022-08-10T20:15:31.569Z,4.07
2022-08-10T20:18:14.232Z,3.60
2022-08-10T20:20:47.223Z,3.80
2022-08-10T20:23:18.701Z,3.30
2022-08-10T20:25:49.962Z,2.90
2022-08-10T20:28:29.344Z,2.80
2022-08-10T20:31:07.216Z,3.50
2022-08-10T20:33:41.581Z,3.63
2022-08-10T20:36:16.534Z,3.07
2022-08-10T20:38:52.134Z,3.40
2022-08-10T20:41:27.521Z,4.17
2022-08-10T20:44:04.709Z,3.80
2022-08-10T20:46:36.578Z,3.33
2022-08-10T20:49:20.707Z,3.73
2022-08-10T20:51:57.295Z,4.20
2022-08-10T20:54:35.241Z,3.57
2022-08-10T20:57:54.210Z,3.77
2022-08-10T21:00:22.887Z,3.90
2022-08-10T21:03:20.810Z,4.10
2022-08-10T21:06:00.333Z,4.27
2022-08-10T21:08:38.838Z,4.77
2022-08-10T21:11:14.995Z,4.50
2022-08-10T21:14:02.116Z,4.90
2022-08-10T21:16:41.513Z,4.80
2022-08-10T21:19:33.125Z,4.70
2022-08-10T21:22:12.547Z,5.10
2022-08-10T21:24:52.369Z,3.87
2022-08-10T21:27:42.497Z,4.23
2022-08-10T21:30:17.022Z,4.47
2022-08-10T21:32:54.230Z,5.10
2022-08-10T21:35:37.226Z,4.33
2022-08-10T21:38:16.728Z,4.50
2022-08-10T21:41:18.642Z,5.53
2022-08-10T21:44:25.294Z,4.60
2022-08-10T21:47:39.595Z,4.57
2022-08-10T21:50:27.559Z,3.83
2022-08-10T21:53:19.942Z,4.10
2022-08-10T21:56:16.850Z,4.13
2022-08-10T21:59:11.145Z,4.67
2022-08-10T22:02:05.632Z,4.10
2022-08-10T22:04:51.942Z,4.10
2022-08-10T22:07:39.732Z,4.53
2022-08-10T22:10:28.963Z,4.50
2022-08-10T22:13:19.647Z,5.20
2022-08-10T22:16:11.878Z,6.40
2022-08-10T22:19:02.232Z,4.53
2022-08-10T22:21:59.210Z,4.10
2022-08-10T22:24:55.009Z,5.00
2022-08-10T22:27:50.332Z,5.30
2022-08-10T22:30:37.084Z,5.90
2022-08-10T22:33:35.647Z,5.53
2022-08-10T22:36:53.418Z,5.93
2022-08-10T22:40:05.823Z,7.10
2022-08-10T22:43:11.118Z,6.20
2022-08-10T22:46:05.085Z,6.90
2022-08-10T22:48:59.050Z,8.10
2022-08-10T22:51:35.862Z,7.60
2022-08-10T22:54:31.917Z,6.93
2022-08-10T22:57:19.068Z,7.20
2022-08-10T22:59:47.669Z,7.87
2022-08-10T23:02:29.188Z,8.40
2022-08-10T23:05:04.731Z,8.53
2022-08-10T23:07:35.145Z,7.13
2022-08-10T23:10:06.492Z,7.07
2022-08-10T23:12:38.805Z,5.90
2022-08-10T23:15:33.020Z,6.07
2022-08-10T23:18:21.133Z,5.90
2022-08-10T23:20:52.821Z,8.83
2022-08-10T23:23:24.038Z,7.40
2022-08-10T23:25:57.061Z,8.33
2022-08-10T23:28:55.557Z,9.70
2022-08-10T23:31:17.715Z,9.90
2022-08-10T23:34:06.586Z,8.87
2022-08-10T23:36:38.308Z,8.37
2022-08-10T23:39:27.114Z,9.23
2022-08-10T23:42:03.071Z,9.40
2022-08-10T23:44:36.403Z,9.90
2022-08-10T23:47:06.169Z,10.70
2022-08-10T23:49:36.144Z,11.30
2022-08-10T23:52:13.278Z,11.93
2022-08-10T23:54:49.892Z,13.70
2022-08-10T23:57:19.914Z,11.90
2022-08-10T23:59:52.982Z,13.67
